Frozen Creek, Kentucky
Current Conditions -  °F | °C
As of 3:53 PM on Saturday 20 Dec 2014 (Local Time) from KJKL Reporting Station
Overcast Overcast  
Wind Chill: 38°   Ceiling: 4500
Heat Index: 38°   Visibility: 10mi
Dew Point: 25°   Wind: 0mph
Humidity: 60%   Direction: NA
Pressure: 30.2"   Gusts: NA
Location:  37.532°N, 83.3068°W
Report Text: KJKL 202053Z AUTO 00000KT 10SM OVC045 03/M04 A3020 RMK AO2 SLP235 T00331039 55003
Loading
Personal Weather Stations






























Interactive Weather Map New forecast layout! Learn more

10-Day Weather Forecast

Advertisements
Track Severe Weather on mobile